sensor_id;sensor_type;location;lat;lon;timestamp;temperature;humidity
52609;DHT22;38503;48.544;12.142;2022-10-16T00:01:39;14.00;99.90
52609;DHT22;38503;48.544;12.142;2022-10-16T00:04:06;13.90;99.90
52609;DHT22;38503;48.544;12.142;2022-10-16T00:06:33;13.90;99.90
52609;DHT22;38503;48.544;12.142;2022-10-16T00:09:00;13.80;99.90
52609;DHT22;38503;48.544;12.142;2022-10-16T00:11:30;13.70;99.90
52609;DHT22;38503;48.544;12.142;2022-10-16T00:13:59;13.70;99.90
52609;DHT22;38503;48.544;12.142;2022-10-16T00:16:27;13.60;99.90
52609;DHT22;38503;48.544;12.142;2022-10-16T00:18:55;13.60;99.90
52609;DHT22;38503;48.544;12.142;2022-10-16T00:21:25;13.60;99.90
52609;DHT22;38503;48.544;12.142;2022-10-16T00:23:58;13.50;99.90
52609;DHT22;38503;48.544;12.142;2022-10-16T00:26:30;13.50;99.90
52609;DHT22;38503;48.544;12.142;2022-10-16T00:28:57;13.50;99.90
52609;DHT22;38503;48.544;12.142;2022-10-16T00:31:24;13.50;99.90
52609;DHT22;38503;48.544;12.142;2022-10-16T00:33:51;13.30;99.90
52609;DHT22;38503;48.544;12.142;2022-10-16T00:36:20;13.30;99.90
52609;DHT22;38503;48.544;12.142;2022-10-16T00:38:49;13.30;99.90
52609;DHT22;38503;48.544;12.142;2022-10-16T00:41:17;13.30;99.90
52609;DHT22;38503;48.544;12.142;2022-10-16T00:43:49;13.30;99.90
52609;DHT22;38503;48.544;12.142;2022-10-16T00:46:41;13.20;99.90
52609;DHT22;38503;48.544;12.142;2022-10-16T00:49:14;13.20;99.90
52609;DHT22;38503;48.544;12.142;2022-10-16T00:51:50;13.10;99.90
52609;DHT22;38503;48.544;12.142;2022-10-16T00:54:20;13.10;99.90
52609;DHT22;38503;48.544;12.142;2022-10-16T00:56:49;13.10;99.90
52609;DHT22;38503;48.544;12.142;2022-10-16T00:59:25;13.00;99.90
52609;DHT22;38503;48.544;12.142;2022-10-16T01:01:54;13.00;99.90
52609;DHT22;38503;48.544;12.142;2022-10-16T01:04:22;13.00;99.90
52609;DHT22;38503;48.544;12.142;2022-10-16T01:06:57;13.00;99.90
52609;DHT22;38503;48.544;12.142;2022-10-16T01:09:54;13.00;99.90
52609;DHT22;38503;48.544;12.142;2022-10-16T01:21:09;13.10;99.90
52609;DHT22;38503;48.544;12.142;2022-10-16T01:24:08;13.10;99.90
52609;DHT22;38503;48.544;12.142;2022-10-16T01:35:13;13.20;99.90
52609;DHT22;38503;48.544;12.142;2022-10-16T01:37:50;13.00;99.90
52609;DHT22;38503;48.544;12.142;2022-10-16T01:40:19;12.90;99.90
52609;DHT22;38503;48.544;12.142;2022-10-16T01:43:00;13.00;99.90
52609;DHT22;38503;48.544;12.142;2022-10-16T01:45:30;13.00;99.90
52609;DHT22;38503;48.544;12.142;2022-10-16T01:48:00;12.80;99.90
52609;DHT22;38503;48.544;12.142;2022-10-16T01:50:32;12.90;99.90
52609;DHT22;38503;48.544;12.142;2022-10-16T01:53:02;12.90;99.90
52609;DHT22;38503;48.544;12.142;2022-10-16T01:55:32;12.90;99.90
52609;DHT22;38503;48.544;12.142;2022-10-16T01:58:01;12.90;99.90
52609;DHT22;38503;48.544;12.142;2022-10-16T02:00:30;13.10;99.90
52609;DHT22;38503;48.544;12.142;2022-10-16T02:02:59;13.10;99.90
52609;DHT22;38503;48.544;12.142;2022-10-16T02:05:32;13.10;99.90
52609;DHT22;38503;48.544;12.142;2022-10-16T02:08:00;13.10;99.90
52609;DHT22;38503;48.544;12.142;2022-10-16T02:10:31;13.10;99.90
52609;DHT22;38503;48.544;12.142;2022-10-16T02:15:29;13.10;99.90
52609;DHT22;38503;48.544;12.142;2022-10-16T02:17:56;13.10;99.90
52609;DHT22;38503;48.544;12.142;2022-10-16T02:20:27;13.20;99.90
52609;DHT22;38503;48.544;12.142;2022-10-16T02:22:56;13.10;99.90
52609;DHT22;38503;48.544;12.142;2022-10-16T02:25:32;13.10;99.90
52609;DHT22;38503;48.544;12.142;2022-10-16T02:28:06;13.00;99.90
52609;DHT22;38503;48.544;12.142;2022-10-16T02:30:40;13.00;99.90
52609;DHT22;38503;48.544;12.142;2022-10-16T02:33:11;13.00;99.90
52609;DHT22;38503;48.544;12.142;2022-10-16T02:35:41;13.00;99.90
52609;DHT22;38503;48.544;12.142;2022-10-16T02:38:09;13.00;99.90
52609;DHT22;38503;48.544;12.142;2022-10-16T02:40:41;13.00;99.90
52609;DHT22;38503;48.544;12.142;2022-10-16T02:43:09;13.00;99.90
52609;DHT22;38503;48.544;12.142;2022-10-16T02:45:37;12.90;99.90
52609;DHT22;38503;48.544;12.142;2022-10-16T02:48:04;12.90;99.90
52609;DHT22;38503;48.544;12.142;2022-10-16T02:50:31;12.80;99.90
52609;DHT22;38503;48.544;12.142;2022-10-16T02:52:58;12.80;99.90
52609;DHT22;38503;48.544;12.142;2022-10-16T02:55:25;12.90;99.90
52609;DHT22;38503;48.544;12.142;2022-10-16T02:57:52;12.90;99.90
52609;DHT22;38503;48.544;12.142;2022-10-16T03:00:19;12.80;99.90
52609;DHT22;38503;48.544;12.142;2022-10-16T03:02:46;12.70;99.90
52609;DHT22;38503;48.544;12.142;2022-10-16T03:05:14;12.60;99.90
52609;DHT22;38503;48.544;12.142;2022-10-16T03:07:41;12.70;99.90
52609;DHT22;38503;48.544;12.142;2022-10-16T03:10:08;12.70;99.90
52609;DHT22;38503;48.544;12.142;2022-10-16T03:12:35;12.70;99.90
52609;DHT22;38503;48.544;12.142;2022-10-16T03:15:02;12.80;99.90
52609;DHT22;38503;48.544;12.142;2022-10-16T03:17:29;12.70;99.90
52609;DHT22;38503;48.544;12.142;2022-10-16T03:19:56;12.50;99.90
52609;DHT22;38503;48.544;12.142;2022-10-16T03:22:23;12.40;99.90
52609;DHT22;38503;48.544;12.142;2022-10-16T03:24:50;12.30;99.90
52609;DHT22;38503;48.544;12.142;2022-10-16T03:27:17;12.40;99.90
52609;DHT22;38503;48.544;12.142;2022-10-16T03:29:43;12.40;99.90
52609;DHT22;38503;48.544;12.142;2022-10-16T03:32:10;12.50;99.90
52609;DHT22;38503;48.544;12.142;2022-10-16T03:34:37;12.40;99.90
52609;DHT22;38503;48.544;12.142;2022-10-16T03:37:04;12.30;99.90
52609;DHT22;38503;48.544;12.142;2022-10-16T03:39:31;12.40;99.90
52609;DHT22;38503;48.544;12.142;2022-10-16T03:41:58;12.40;99.90
52609;DHT22;38503;48.544;12.142;2022-10-16T03:44:24;12.40;99.90
52609;DHT22;38503;48.544;12.142;2022-10-16T03:46:51;12.30;99.90
52609;DHT22;38503;48.544;12.142;2022-10-16T03:49:18;12.30;99.90
52609;DHT22;38503;48.544;12.142;2022-10-16T03:51:45;12.20;99.90
52609;DHT22;38503;48.544;12.142;2022-10-16T03:54:15;12.20;99.90
52609;DHT22;38503;48.544;12.142;2022-10-16T03:56:42;12.20;99.90
52609;DHT22;38503;48.544;12.142;2022-10-16T03:59:08;12.10;99.90
52609;DHT22;38503;48.544;12.142;2022-10-16T04:01:35;12.10;99.90
52609;DHT22;38503;48.544;12.142;2022-10-16T04:04:02;11.90;99.90
52609;DHT22;38503;48.544;12.142;2022-10-16T04:06:29;11.90;99.90
52609;DHT22;38503;48.544;12.142;2022-10-16T04:08:56;11.90;99.90
52609;DHT22;38503;48.544;12.142;2022-10-16T04:11:22;11.80;99.90
52609;DHT22;38503;48.544;12.142;2022-10-16T04:13:49;12.00;99.90
52609;DHT22;38503;48.544;12.142;2022-10-16T04:16:16;11.90;99.90
52609;DHT22;38503;48.544;12.142;2022-10-16T04:18:43;11.90;99.90
52609;DHT22;38503;48.544;12.142;2022-10-16T04:21:10;11.90;99.90
52609;DHT22;38503;48.544;12.142;2022-10-16T04:23:37;12.00;99.90
52609;DHT22;38503;48.544;12.142;2022-10-16T04:26:03;12.00;99.90
52609;DHT22;38503;48.544;12.142;2022-10-16T04:28:30;12.00;99.90
52609;DHT22;38503;48.544;12.142;2022-10-16T04:30:57;12.10;99.90
52609;DHT22;38503;48.544;12.142;2022-10-16T04:33:24;12.20;99.90
52609;DHT22;38503;48.544;12.142;2022-10-16T04:35:58;12.20;99.90
52609;DHT22;38503;48.544;12.142;2022-10-16T04:38:25;12.10;99.90
52609;DHT22;38503;48.544;12.142;2022-10-16T04:40:52;12.10;99.90
52609;DHT22;38503;48.544;12.142;2022-10-16T04:43:20;12.10;99.90
52609;DHT22;38503;48.544;12.142;2022-10-16T04:45:47;12.10;99.90
52609;DHT22;38503;48.544;12.142;2022-10-16T04:48:14;12.10;99.90
52609;DHT22;38503;48.544;12.142;2022-10-16T04:50:41;12.10;99.90
52609;DHT22;38503;48.544;12.142;2022-10-16T04:53:08;12.10;99.90
52609;DHT22;38503;48.544;12.142;2022-10-16T04:55:35;12.10;99.90
52609;DHT22;38503;48.544;12.142;2022-10-16T04:58:02;12.20;99.90
52609;DHT22;38503;48.544;12.142;2022-10-16T05:00:28;12.20;99.90
52609;DHT22;38503;48.544;12.142;2022-10-16T05:02:55;12.20;99.90
52609;DHT22;38503;48.544;12.142;2022-10-16T05:05:22;12.10;99.90
52609;DHT22;38503;48.544;12.142;2022-10-16T05:07:49;12.10;99.90
52609;DHT22;38503;48.544;12.142;2022-10-16T05:10:16;12.10;99.90
52609;DHT22;38503;48.544;12.142;2022-10-16T05:12:43;12.10;99.90
52609;DHT22;38503;48.544;12.142;2022-10-16T05:15:10;12.20;99.90
52609;DHT22;38503;48.544;12.142;2022-10-16T05:17:37;12.20;99.90
52609;DHT22;38503;48.544;12.142;2022-10-16T05:20:10;12.20;99.90
52609;DHT22;38503;48.544;12.142;2022-10-16T05:22:37;12.30;99.90
52609;DHT22;38503;48.544;12.142;2022-10-16T05:25:04;12.30;99.90
52609;DHT22;38503;48.544;12.142;2022-10-16T05:27:31;12.40;99.90
52609;DHT22;38503;48.544;12.142;2022-10-16T05:29:58;12.30;99.90
52609;DHT22;38503;48.544;12.142;2022-10-16T05:32:25;12.30;99.90
52609;DHT22;38503;48.544;12.142;2022-10-16T05:34:51;12.30;99.90
52609;DHT22;38503;48.544;12.142;2022-10-16T05:37:18;12.20;99.90
52609;DHT22;38503;48.544;12.142;2022-10-16T05:39:45;12.20;99.90
52609;DHT22;38503;48.544;12.142;2022-10-16T05:42:12;12.20;99.90
52609;DHT22;38503;48.544;12.142;2022-10-16T05:44:39;12.10;99.90
52609;DHT22;38503;48.544;12.142;2022-10-16T05:47:06;12.20;99.90
52609;DHT22;38503;48.544;12.142;2022-10-16T05:49:33;12.20;99.90
52609;DHT22;38503;48.544;12.142;2022-10-16T05:52:05;12.20;99.90
52609;DHT22;38503;48.544;12.142;2022-10-16T05:54:32;12.50;99.90
52609;DHT22;38503;48.544;12.142;2022-10-16T05:56:59;13.20;99.90
52609;DHT22;38503;48.544;12.142;2022-10-16T05:59:26;13.80;99.90
52609;DHT22;38503;48.544;12.142;2022-10-16T06:01:53;13.90;99.90
52609;DHT22;38503;48.544;12.142;2022-10-16T06:04:20;13.60;99.90
52609;DHT22;38503;48.544;12.142;2022-10-16T06:06:47;13.20;99.90
52609;DHT22;38503;48.544;12.142;2022-10-16T06:09:14;13.00;99.90
52609;DHT22;38503;48.544;12.142;2022-10-16T06:11:41;12.90;99.90
52609;DHT22;38503;48.544;12.142;2022-10-16T06:14:08;12.80;99.90
52609;DHT22;38503;48.544;12.142;2022-10-16T06:16:36;12.70;99.90
52609;DHT22;38503;48.544;12.142;2022-10-16T06:19:04;12.50;99.90
52609;DHT22;38503;48.544;12.142;2022-10-16T06:21:33;12.50;99.90
52609;DHT22;38503;48.544;12.142;2022-10-16T06:24:00;12.50;99.90
52609;DHT22;38503;48.544;12.142;2022-10-16T06:26:29;12.50;99.90
52609;DHT22;38503;48.544;12.142;2022-10-16T06:28:57;12.50;99.90
52609;DHT22;38503;48.544;12.142;2022-10-16T06:31:26;12.50;99.90
52609;DHT22;38503;48.544;12.142;2022-10-16T06:33:56;12.70;99.90
52609;DHT22;38503;48.544;12.142;2022-10-16T06:36:23;12.90;99.90
52609;DHT22;38503;48.544;12.142;2022-10-16T06:38:51;13.00;99.90
52609;DHT22;38503;48.544;12.142;2022-10-16T06:41:20;13.10;99.90
52609;DHT22;38503;48.544;12.142;2022-10-16T06:43:47;13.20;99.90
52609;DHT22;38503;48.544;12.142;2022-10-16T06:46:17;13.30;99.90
52609;DHT22;38503;48.544;12.142;2022-10-16T06:48:44;13.40;99.90
52609;DHT22;38503;48.544;12.142;2022-10-16T06:51:14;13.50;99.90
52609;DHT22;38503;48.544;12.142;2022-10-16T06:53:43;13.40;99.90
52609;DHT22;38503;48.544;12.142;2022-10-16T06:56:29;13.60;99.90
52609;DHT22;38503;48.544;12.142;2022-10-16T06:58:58;13.70;99.90
52609;DHT22;38503;48.544;12.142;2022-10-16T07:01:25;13.90;99.90
52609;DHT22;38503;48.544;12.142;2022-10-16T07:03:52;14.20;99.90
52609;DHT22;38503;48.544;12.142;2022-10-16T07:06:23;14.60;99.90
52609;DHT22;38503;48.544;12.142;2022-10-16T07:08:51;14.60;99.90
52609;DHT22;38503;48.544;12.142;2022-10-16T07:11:20;14.90;99.90
52609;DHT22;38503;48.544;12.142;2022-10-16T07:13:48;15.00;99.90
52609;DHT22;38503;48.544;12.142;2022-10-16T07:16:27;15.30;99.90
52609;DHT22;38503;48.544;12.142;2022-10-16T07:18:59;15.80;99.90
52609;DHT22;38503;48.544;12.142;2022-10-16T07:21:31;16.00;99.90
52609;DHT22;38503;48.544;12.142;2022-10-16T07:24:02;16.30;99.90
52609;DHT22;38503;48.544;12.142;2022-10-16T07:26:32;16.70;99.90
52609;DHT22;38503;48.544;12.142;2022-10-16T07:28:59;17.90;99.90
52609;DHT22;38503;48.544;12.142;2022-10-16T07:31:27;19.40;99.90
52609;DHT22;38503;48.544;12.142;2022-10-16T07:33:54;20.50;99.90
52609;DHT22;38503;48.544;12.142;2022-10-16T07:36:21;21.90;99.90
52609;DHT22;38503;48.544;12.142;2022-10-16T07:38:48;23.00;99.90
52609;DHT22;38503;48.544;12.142;2022-10-16T07:41:21;21.90;99.90
52609;DHT22;38503;48.544;12.142;2022-10-16T07:43:49;20.10;99.90
52609;DHT22;38503;48.544;12.142;2022-10-16T07:46:17;18.80;99.90
52609;DHT22;38503;48.544;12.142;2022-10-16T07:48:44;18.00;99.90
52609;DHT22;38503;48.544;12.142;2022-10-16T07:51:16;16.80;99.90
52609;DHT22;38503;48.544;12.142;2022-10-16T07:53:43;16.70;99.90
52609;DHT22;38503;48.544;12.142;2022-10-16T07:56:10;17.00;99.90
52609;DHT22;38503;48.544;12.142;2022-10-16T07:58:38;18.00;99.90
52609;DHT22;38503;48.544;12.142;2022-10-16T08:01:08;18.90;99.90
52609;DHT22;38503;48.544;12.142;2022-10-16T08:03:35;19.00;99.90
52609;DHT22;38503;48.544;12.142;2022-10-16T08:06:03;19.20;99.90
52609;DHT22;38503;48.544;12.142;2022-10-16T08:08:30;19.90;99.90
52609;DHT22;38503;48.544;12.142;2022-10-16T08:10:57;20.30;99.90
52609;DHT22;38503;48.544;12.142;2022-10-16T08:13:24;21.10;99.90
52609;DHT22;38503;48.544;12.142;2022-10-16T08:15:51;21.20;99.90
52609;DHT22;38503;48.544;12.142;2022-10-16T08:18:17;21.80;99.90
52609;DHT22;38503;48.544;12.142;2022-10-16T08:20:44;21.30;99.90
52609;DHT22;38503;48.544;12.142;2022-10-16T08:23:12;21.70;99.90
52609;DHT22;38503;48.544;12.142;2022-10-16T08:25:40;21.30;99.90
52609;DHT22;38503;48.544;12.142;2022-10-16T08:28:09;21.40;99.90
52609;DHT22;38503;48.544;12.142;2022-10-16T08:30:36;21.20;99.90
52609;DHT22;38503;48.544;12.142;2022-10-16T08:33:03;21.80;99.90
52609;DHT22;38503;48.544;12.142;2022-10-16T08:35:30;22.00;99.90
52609;DHT22;38503;48.544;12.142;2022-10-16T08:37:57;23.30;99.90
52609;DHT22;38503;48.544;12.142;2022-10-16T08:48:43;24.10;98.80
52609;DHT22;38503;48.544;12.142;2022-10-16T08:51:24;24.50;98.10
52609;DHT22;38503;48.544;12.142;2022-10-16T08:54:11;23.60;98.70
52609;DHT22;38503;48.544;12.142;2022-10-16T08:56:42;24.70;98.40
52609;DHT22;38503;48.544;12.142;2022-10-16T08:59:14;26.50;97.10
52609;DHT22;38503;48.544;12.142;2022-10-16T09:01:47;27.30;94.90
52609;DHT22;38503;48.544;12.142;2022-10-16T09:04:40;25.80;95.20
52609;DHT22;38503;48.544;12.142;2022-10-16T09:07:19;25.90;96.40
52609;DHT22;38503;48.544;12.142;2022-10-16T09:12:50;26.60;95.70
52609;DHT22;38503;48.544;12.142;2022-10-16T09:15:34;27.50;94.70
52609;DHT22;38503;48.544;12.142;2022-10-16T09:23:25;25.40;96.00
52609;DHT22;38503;48.544;12.142;2022-10-16T09:25:54;25.90;96.30
52609;DHT22;38503;48.544;12.142;2022-10-16T09:28:22;25.60;96.40
52609;DHT22;38503;48.544;12.142;2022-10-16T09:30:49;26.10;96.20
52609;DHT22;38503;48.544;12.142;2022-10-16T09:33:21;27.20;95.80
52609;DHT22;38503;48.544;12.142;2022-10-16T09:35:51;26.40;95.20
52609;DHT22;38503;48.544;12.142;2022-10-16T09:38:44;26.60;95.70
52609;DHT22;38503;48.544;12.142;2022-10-16T09:41:18;28.60;94.50
52609;DHT22;38503;48.544;12.142;2022-10-16T09:43:58;28.10;94.30
52609;DHT22;38503;48.544;12.142;2022-10-16T09:48:56;26.70;95.00
52609;DHT22;38503;48.544;12.142;2022-10-16T09:51:28;27.20;94.50
52609;DHT22;38503;48.544;12.142;2022-10-16T09:54:00;28.10;94.20
52609;DHT22;38503;48.544;12.142;2022-10-16T09:56:30;29.60;93.60
52609;DHT22;38503;48.544;12.142;2022-10-16T09:59:10;29.20;93.30
52609;DHT22;38503;48.544;12.142;2022-10-16T10:01:48;27.50;93.60
52609;DHT22;38503;48.544;12.142;2022-10-16T10:04:22;28.50;93.10
52609;DHT22;38503;48.544;12.142;2022-10-16T10:06:56;28.60;93.50
52609;DHT22;38503;48.544;12.142;2022-10-16T10:09:39;28.80;92.80
52609;DHT22;38503;48.544;12.142;2022-10-16T10:12:17;28.60;91.70
52609;DHT22;38503;48.544;12.142;2022-10-16T10:14:53;29.60;91.40
52609;DHT22;38503;48.544;12.142;2022-10-16T10:17:25;28.20;91.70
52609;DHT22;38503;48.544;12.142;2022-10-16T10:20:22;28.40;92.00
52609;DHT22;38503;48.544;12.142;2022-10-16T10:22:49;28.50;91.50
52609;DHT22;38503;48.544;12.142;2022-10-16T10:31:20;28.30;91.60
52609;DHT22;38503;48.544;12.142;2022-10-16T10:36:45;29.00;90.80
52609;DHT22;38503;48.544;12.142;2022-10-16T10:39:27;28.20;91.10
52609;DHT22;38503;48.544;12.142;2022-10-16T10:44:54;29.00;91.00
52609;DHT22;38503;48.544;12.142;2022-10-16T10:55:52;30.80;86.90
52609;DHT22;38503;48.544;12.142;2022-10-16T11:01:14;30.30;89.90
52609;DHT22;38503;48.544;12.142;2022-10-16T11:06:31;32.30;84.30
52609;DHT22;38503;48.544;12.142;2022-10-16T11:09:13;31.60;83.70
52609;DHT22;38503;48.544;12.142;2022-10-16T11:11:47;30.90;83.50
52609;DHT22;38503;48.544;12.142;2022-10-16T11:17:08;30.70;83.20
52609;DHT22;38503;48.544;12.142;2022-10-16T11:19:50;30.30;84.50
52609;DHT22;38503;48.544;12.142;2022-10-16T11:22:32;30.90;84.70
52609;DHT22;38503;48.544;12.142;2022-10-16T11:25:26;32.20;82.20
52609;DHT22;38503;48.544;12.142;2022-10-16T11:39:08;32.40;78.60
52609;DHT22;38503;48.544;12.142;2022-10-16T11:44:41;30.30;80.10
52609;DHT22;38503;48.544;12.142;2022-10-16T11:47:24;29.80;82.30
52609;DHT22;38503;48.544;12.142;2022-10-16T11:50:45;30.50;84.30
52609;DHT22;38503;48.544;12.142;2022-10-16T11:53:58;31.10;82.20
52609;DHT22;38503;48.544;12.142;2022-10-16T11:56:21;31.90;79.50
52609;DHT22;38503;48.544;12.142;2022-10-16T11:58:53;32.50;79.90
52609;DHT22;38503;48.544;12.142;2022-10-16T12:01:38;32.40;79.60
52609;DHT22;38503;48.544;12.142;2022-10-16T12:07:04;32.90;78.10
52609;DHT22;38503;48.544;12.142;2022-10-16T12:09:34;33.50;77.80
52609;DHT22;38503;48.544;12.142;2022-10-16T12:12:03;32.90;77.70
52609;DHT22;38503;48.544;12.142;2022-10-16T12:17:40;33.40;75.90
52609;DHT22;38503;48.544;12.142;2022-10-16T12:22:54;32.10;78.10
52609;DHT22;38503;48.544;12.142;2022-10-16T12:27:59;30.00;79.40
52609;DHT22;38503;48.544;12.142;2022-10-16T12:30:29;29.90;82.30
52609;DHT22;38503;48.544;12.142;2022-10-16T12:33:28;29.90;82.80
52609;DHT22;38503;48.544;12.142;2022-10-16T12:35:57;29.50;83.20
52609;DHT22;38503;48.544;12.142;2022-10-16T12:38:51;29.10;84.40
52609;DHT22;38503;48.544;12.142;2022-10-16T12:41:31;28.80;84.70
52609;DHT22;38503;48.544;12.142;2022-10-16T12:43:59;28.10;83.20
52609;DHT22;38503;48.544;12.142;2022-10-16T12:51:41;27.40;85.30
52609;DHT22;38503;48.544;12.142;2022-10-16T12:54:17;27.30;87.00
52609;DHT22;38503;48.544;12.142;2022-10-16T13:08:05;26.30;89.30
52609;DHT22;38503;48.544;12.142;2022-10-16T13:10:45;26.00;88.70
52609;DHT22;38503;48.544;12.142;2022-10-16T13:13:49;25.90;90.00
52609;DHT22;38503;48.544;12.142;2022-10-16T13:24:55;25.90;90.00
52609;DHT22;38503;48.544;12.142;2022-10-16T13:27:30;25.90;90.80
52609;DHT22;38503;48.544;12.142;2022-10-16T13:30:18;25.70;91.00
52609;DHT22;38503;48.544;12.142;2022-10-16T13:33:02;25.70;91.50
52609;DHT22;38503;48.544;12.142;2022-10-16T13:35:32;25.50;91.90
52609;DHT22;38503;48.544;12.142;2022-10-16T13:38:15;25.60;92.30
52609;DHT22;38503;48.544;12.142;2022-10-16T13:43:45;25.80;92.50
52609;DHT22;38503;48.544;12.142;2022-10-16T13:46:17;26.00;90.80
52609;DHT22;38503;48.544;12.142;2022-10-16T13:48:55;25.90;91.50
52609;DHT22;38503;48.544;12.142;2022-10-16T13:51:22;25.80;91.90
52609;DHT22;38503;48.544;12.142;2022-10-16T13:53:58;25.50;91.80
52609;DHT22;38503;48.544;12.142;2022-10-16T13:56:30;25.60;92.20
52609;DHT22;38503;48.544;12.142;2022-10-16T13:59:20;25.60;92.60
52609;DHT22;38503;48.544;12.142;2022-10-16T14:01:49;25.40;91.70
52609;DHT22;38503;48.544;12.142;2022-10-16T14:04:18;25.20;92.30
52609;DHT22;38503;48.544;12.142;2022-10-16T14:06:46;25.30;92.80
52609;DHT22;38503;48.544;12.142;2022-10-16T14:09:28;25.30;92.80
52609;DHT22;38503;48.544;12.142;2022-10-16T14:12:01;25.10;92.40
52609;DHT22;38503;48.544;12.142;2022-10-16T14:14:35;25.00;92.80
52609;DHT22;38503;48.544;12.142;2022-10-16T14:17:22;24.80;92.40
52609;DHT22;38503;48.544;12.142;2022-10-16T14:19:51;24.50;92.80
52609;DHT22;38503;48.544;12.142;2022-10-16T14:22:35;24.50;92.90
52609;DHT22;38503;48.544;12.142;2022-10-16T14:28:02;24.40;93.80
52609;DHT22;38503;48.544;12.142;2022-10-16T14:30:31;24.40;93.70
52609;DHT22;38503;48.544;12.142;2022-10-16T14:33:18;24.20;93.00
52609;DHT22;38503;48.544;12.142;2022-10-16T14:36:02;24.10;93.30
52609;DHT22;38503;48.544;12.142;2022-10-16T14:38:30;24.10;93.70
52609;DHT22;38503;48.544;12.142;2022-10-16T14:40:59;24.10;94.30
52609;DHT22;38503;48.544;12.142;2022-10-16T14:45:58;24.00;94.50
52609;DHT22;38503;48.544;12.142;2022-10-16T14:48:25;23.90;94.80
52609;DHT22;38503;48.544;12.142;2022-10-16T14:50:52;23.90;95.20
52609;DHT22;38503;48.544;12.142;2022-10-16T14:53:19;23.80;94.90
52609;DHT22;38503;48.544;12.142;2022-10-16T14:55:46;23.70;94.70
52609;DHT22;38503;48.544;12.142;2022-10-16T14:58:20;23.70;94.50
52609;DHT22;38503;48.544;12.142;2022-10-16T15:00:48;23.70;95.10
52609;DHT22;38503;48.544;12.142;2022-10-16T15:03:15;23.50;95.50
52609;DHT22;38503;48.544;12.142;2022-10-16T15:05:42;23.50;95.80
52609;DHT22;38503;48.544;12.142;2022-10-16T15:08:09;23.50;95.70
52609;DHT22;38503;48.544;12.142;2022-10-16T15:10:40;23.50;95.90
52609;DHT22;38503;48.544;12.142;2022-10-16T15:13:11;23.40;95.20
52609;DHT22;38503;48.544;12.142;2022-10-16T15:15:43;23.30;96.50
52609;DHT22;38503;48.544;12.142;2022-10-16T15:18:10;23.20;97.30
52609;DHT22;38503;48.544;12.142;2022-10-16T15:20:38;23.00;98.00
52609;DHT22;38503;48.544;12.142;2022-10-16T15:23:16;22.90;97.80
52609;DHT22;38503;48.544;12.142;2022-10-16T15:25:50;22.80;97.40
52609;DHT22;38503;48.544;12.142;2022-10-16T15:28:18;22.70;98.00
52609;DHT22;38503;48.544;12.142;2022-10-16T15:30:46;22.40;98.40
52609;DHT22;38503;48.544;12.142;2022-10-16T15:33:16;22.40;98.80
52609;DHT22;38503;48.544;12.142;2022-10-16T15:35:47;22.20;99.90
52609;DHT22;38503;48.544;12.142;2022-10-16T15:38:15;22.10;99.90
52609;DHT22;38503;48.544;12.142;2022-10-16T15:40:42;21.90;99.90
52609;DHT22;38503;48.544;12.142;2022-10-16T15:43:09;21.80;99.90
52609;DHT22;38503;48.544;12.142;2022-10-16T15:45:40;21.60;99.90
52609;DHT22;38503;48.544;12.142;2022-10-16T15:48:13;21.60;99.90
52609;DHT22;38503;48.544;12.142;2022-10-16T15:50:40;21.50;99.90
52609;DHT22;38503;48.544;12.142;2022-10-16T15:53:09;21.30;99.90
52609;DHT22;38503;48.544;12.142;2022-10-16T15:55:36;21.30;99.90
52609;DHT22;38503;48.544;12.142;2022-10-16T15:58:04;21.20;99.90
52609;DHT22;38503;48.544;12.142;2022-10-16T16:00:32;21.10;99.90
52609;DHT22;38503;48.544;12.142;2022-10-16T16:02:58;21.00;99.90
52609;DHT22;38503;48.544;12.142;2022-10-16T16:05:26;20.90;99.90
52609;DHT22;38503;48.544;12.142;2022-10-16T16:07:54;20.80;99.90
52609;DHT22;38503;48.544;12.142;2022-10-16T16:10:21;20.70;99.90
52609;DHT22;38503;48.544;12.142;2022-10-16T16:12:49;20.60;99.90
52609;DHT22;38503;48.544;12.142;2022-10-16T16:15:19;20.50;99.90
52609;DHT22;38503;48.544;12.142;2022-10-16T16:17:47;20.30;99.90
52609;DHT22;38503;48.544;12.142;2022-10-16T16:20:14;20.20;99.90
52609;DHT22;38503;48.544;12.142;2022-10-16T16:22:41;20.00;99.90
52609;DHT22;38503;48.544;12.142;2022-10-16T16:25:08;20.00;99.90
52609;DHT22;38503;48.544;12.142;2022-10-16T16:27:35;19.90;99.90
52609;DHT22;38503;48.544;12.142;2022-10-16T16:30:06;19.80;99.90
52609;DHT22;38503;48.544;12.142;2022-10-16T16:32:34;19.70;99.90
52609;DHT22;38503;48.544;12.142;2022-10-16T16:35:02;19.50;99.90
52609;DHT22;38503;48.544;12.142;2022-10-16T16:37:29;19.50;99.90
52609;DHT22;38503;48.544;12.142;2022-10-16T16:39:56;19.40;99.90
52609;DHT22;38503;48.544;12.142;2022-10-16T16:42:28;19.30;99.90
52609;DHT22;38503;48.544;12.142;2022-10-16T16:44:55;19.20;99.90
52609;DHT22;38503;48.544;12.142;2022-10-16T16:47:22;19.00;99.90
52609;DHT22;38503;48.544;12.142;2022-10-16T16:49:49;18.90;99.90
52609;DHT22;38503;48.544;12.142;2022-10-16T16:52:16;18.90;99.90
52609;DHT22;38503;48.544;12.142;2022-10-16T16:54:43;18.80;99.90
52609;DHT22;38503;48.544;12.142;2022-10-16T16:57:11;18.80;99.90
52609;DHT22;38503;48.544;12.142;2022-10-16T16:59:38;18.70;99.90
52609;DHT22;38503;48.544;12.142;2022-10-16T17:02:05;18.70;99.90
52609;DHT22;38503;48.544;12.142;2022-10-16T17:04:32;18.70;99.90
52609;DHT22;38503;48.544;12.142;2022-10-16T17:06:59;18.60;99.90
52609;DHT22;38503;48.544;12.142;2022-10-16T17:09:26;18.40;99.90
52609;DHT22;38503;48.544;12.142;2022-10-16T17:11:53;18.40;99.90
52609;DHT22;38503;48.544;12.142;2022-10-16T17:14:20;18.40;99.90
52609;DHT22;38503;48.544;12.142;2022-10-16T17:16:47;18.40;99.90
52609;DHT22;38503;48.544;12.142;2022-10-16T17:19:17;18.40;99.90
52609;DHT22;38503;48.544;12.142;2022-10-16T17:21:47;18.40;99.90
52609;DHT22;38503;48.544;12.142;2022-10-16T17:24:14;18.30;99.90
52609;DHT22;38503;48.544;12.142;2022-10-16T17:26:41;18.30;99.90
52609;DHT22;38503;48.544;12.142;2022-10-16T17:29:15;18.20;99.90
52609;DHT22;38503;48.544;12.142;2022-10-16T17:31:46;18.20;99.90
52609;DHT22;38503;48.544;12.142;2022-10-16T17:34:15;18.10;99.90
52609;DHT22;38503;48.544;12.142;2022-10-16T17:36:42;18.20;99.90
52609;DHT22;38503;48.544;12.142;2022-10-16T17:39:11;18.20;99.90
52609;DHT22;38503;48.544;12.142;2022-10-16T17:41:38;18.00;99.90
52609;DHT22;38503;48.544;12.142;2022-10-16T17:44:06;18.00;99.90